Terminal Aerodrome Forecast
Issued by NWS Sterling, VA

Current Version | Previous Version | Text Only | Print | Product List | Glossary Off
Versions: 1 2 3 4 5 6 7 8 9 10 11 12 13 14 15 16 17 18 19 20 21 22 23 24 25 26 27 28 29

120
FTUS41 KLWX 262330
TAFDCA
TAF
KDCA 262330Z 2700/2724 09009KT P6SM OVC008
     FM270500 14007KT P6SM OVC008
     FM270900 18007KT 3SM BR OVC008
     FM271200 20008KT P6SM BKN010
     FM271300 21009KT P6SM BKN025
     FM271500 22009KT P6SM BKN050
     FM272300 18006KT P6SM BKN050=

USA.gov is the U.S. government's official web portal to all federal, state and local government web resources and services.